sensor_id;sensor_type;location;lat;lon;timestamp;P1;durP1;ratioP1;P2;durP2;ratioP2
71566;SDS011;59403;47.456;19.120;2022-11-20T00:01:23;18.97;;;8.20;;
71566;SDS011;59403;47.456;19.120;2022-11-20T00:03:51;18.12;;;7.90;;
71566;SDS011;59403;47.456;19.120;2022-11-20T00:06:20;18.08;;;7.90;;
71566;SDS011;59403;47.456;19.120;2022-11-20T00:08:49;20.23;;;7.75;;
71566;SDS011;59403;47.456;19.120;2022-11-20T00:11:17;19.77;;;8.57;;
71566;SDS011;59403;47.456;19.120;2022-11-20T00:13:45;22.10;;;8.63;;
71566;SDS011;59403;47.456;19.120;2022-11-20T00:16:15;19.42;;;8.30;;
71566;SDS011;59403;47.456;19.120;2022-11-20T00:18:43;21.20;;;9.23;;
71566;SDS011;59403;47.456;19.120;2022-11-20T00:21:11;21.48;;;9.45;;
71566;SDS011;59403;47.456;19.120;2022-11-20T00:23:38;20.23;;;7.97;;
71566;SDS011;59403;47.456;19.120;2022-11-20T00:26:09;22.07;;;8.73;;
71566;SDS011;59403;47.456;19.120;2022-11-20T00:28:37;20.45;;;8.68;;
71566;SDS011;59403;47.456;19.120;2022-11-20T00:31:05;19.48;;;7.50;;
71566;SDS011;59403;47.456;19.120;2022-11-20T00:33:33;20.08;;;8.10;;
71566;SDS011;59403;47.456;19.120;2022-11-20T00:36:00;23.23;;;8.35;;
71566;SDS011;59403;47.456;19.120;2022-11-20T00:38:29;20.73;;;8.17;;
71566;SDS011;59403;47.456;19.120;2022-11-20T00:40:56;22.15;;;8.73;;
71566;SDS011;59403;47.456;19.120;2022-11-20T00:43:25;25.25;;;9.98;;
71566;SDS011;59403;47.456;19.120;2022-11-20T00:45:56;24.85;;;9.85;;
71566;SDS011;59403;47.456;19.120;2022-11-20T00:48:23;25.30;;;10.95;;
71566;SDS011;59403;47.456;19.120;2022-11-20T00:50:50;21.73;;;9.00;;
71566;SDS011;59403;47.456;19.120;2022-11-20T00:53:17;24.45;;;9.80;;
71566;SDS011;59403;47.456;19.120;2022-11-20T00:55:51;24.08;;;10.88;;
71566;SDS011;59403;47.456;19.120;2022-11-20T00:58:19;22.83;;;9.25;;
71566;SDS011;59403;47.456;19.120;2022-11-20T01:00:47;22.80;;;9.20;;
71566;SDS011;59403;47.456;19.120;2022-11-20T01:03:15;20.90;;;9.03;;
71566;SDS011;59403;47.456;19.120;2022-11-20T01:05:42;25.40;;;10.20;;
71566;SDS011;59403;47.456;19.120;2022-11-20T01:08:09;23.92;;;9.63;;
71566;SDS011;59403;47.456;19.120;2022-11-20T01:10:36;23.10;;;9.45;;
71566;SDS011;59403;47.456;19.120;2022-11-20T01:13:03;24.23;;;9.70;;
71566;SDS011;59403;47.456;19.120;2022-11-20T01:15:49;21.97;;;9.47;;
71566;SDS011;59403;47.456;19.120;2022-11-20T01:18:15;24.85;;;9.50;;
71566;SDS011;59403;47.456;19.120;2022-11-20T01:20:42;28.15;;;9.85;;
71566;SDS011;59403;47.456;19.120;2022-11-20T01:23:09;25.17;;;9.73;;
71566;SDS011;59403;47.456;19.120;2022-11-20T01:25:36;30.90;;;10.50;;
71566;SDS011;59403;47.456;19.120;2022-11-20T01:28:03;30.47;;;11.00;;
71566;SDS011;59403;47.456;19.120;2022-11-20T01:30:30;31.25;;;11.25;;
71566;SDS011;59403;47.456;19.120;2022-11-20T01:32:58;31.98;;;11.38;;
71566;SDS011;59403;47.456;19.120;2022-11-20T01:35:25;31.60;;;10.65;;
71566;SDS011;59403;47.456;19.120;2022-11-20T01:37:52;32.47;;;11.77;;
71566;SDS011;59403;47.456;19.120;2022-11-20T01:40:19;32.13;;;11.50;;
71566;SDS011;59403;47.456;19.120;2022-11-20T01:42:47;34.35;;;11.93;;
71566;SDS011;59403;47.456;19.120;2022-11-20T01:48:32;32.58;;;11.20;;
71566;SDS011;59403;47.456;19.120;2022-11-20T01:51:02;31.37;;;11.63;;
71566;SDS011;59403;47.456;19.120;2022-11-20T01:53:33;37.03;;;12.10;;
71566;SDS011;59403;47.456;19.120;2022-11-20T01:56:02;30.37;;;11.85;;
71566;SDS011;59403;47.456;19.120;2022-11-20T01:58:33;34.67;;;11.65;;
71566;SDS011;59403;47.456;19.120;2022-11-20T11:58:02;32.63;;;14.68;;
71566;SDS011;59403;47.456;19.120;2022-11-20T12:00:39;30.08;;;14.00;;
71566;SDS011;59403;47.456;19.120;2022-11-20T12:03:12;35.72;;;15.98;;
71566;SDS011;59403;47.456;19.120;2022-11-20T12:05:44;31.90;;;14.97;;
71566;SDS011;59403;47.456;19.120;2022-11-20T12:08:17;27.08;;;13.25;;
71566;SDS011;59403;47.456;19.120;2022-11-20T12:13:25;33.67;;;14.57;;
71566;SDS011;59403;47.456;19.120;2022-11-20T12:16:13;27.35;;;13.55;;
71566;SDS011;59403;47.456;19.120;2022-11-20T12:18:42;29.60;;;13.57;;
71566;SDS011;59403;47.456;19.120;2022-11-20T12:21:12;28.08;;;13.38;;
71566;SDS011;59403;47.456;19.120;2022-11-20T12:23:53;25.77;;;12.15;;
71566;SDS011;59403;47.456;19.120;2022-11-20T12:26:36;24.65;;;10.88;;
71566;SDS011;59403;47.456;19.120;2022-11-20T12:29:15;23.20;;;10.80;;
71566;SDS011;59403;47.456;19.120;2022-11-20T12:31:58;22.07;;;10.50;;
71566;SDS011;59403;47.456;19.120;2022-11-20T12:34:44;23.08;;;11.40;;
71566;SDS011;59403;47.456;19.120;2022-11-20T12:37:22;23.12;;;11.15;;
71566;SDS011;59403;47.456;19.120;2022-11-20T12:40:00;23.87;;;10.57;;
71566;SDS011;59403;47.456;19.120;2022-11-20T12:42:38;23.58;;;11.05;;
71566;SDS011;59403;47.456;19.120;2022-11-20T12:45:42;24.37;;;10.40;;
71566;SDS011;59403;47.456;19.120;2022-11-20T12:51:34;23.83;;;10.95;;
71566;SDS011;59403;47.456;19.120;2022-11-20T12:54:28;23.35;;;10.35;;
71566;SDS011;59403;47.456;19.120;2022-11-20T12:57:20;22.50;;;10.73;;
71566;SDS011;59403;47.456;19.120;2022-11-20T13:00:02;24.13;;;11.23;;
71566;SDS011;59403;47.456;19.120;2022-11-20T13:02:41;23.40;;;11.25;;
71566;SDS011;59403;47.456;19.120;2022-11-20T13:05:26;25.30;;;11.27;;
71566;SDS011;59403;47.456;19.120;2022-11-20T13:08:02;25.60;;;11.40;;
71566;SDS011;59403;47.456;19.120;2022-11-20T13:10:31;23.85;;;11.48;;
71566;SDS011;59403;47.456;19.120;2022-11-20T13:13:04;25.27;;;10.90;;
71566;SDS011;59403;47.456;19.120;2022-11-20T13:15:42;25.73;;;11.93;;
71566;SDS011;59403;47.456;19.120;2022-11-20T13:18:18;25.70;;;11.85;;
71566;SDS011;59403;47.456;19.120;2022-11-20T13:20:45;25.37;;;11.10;;
71566;SDS011;59403;47.456;19.120;2022-11-20T13:23:22;25.00;;;12.00;;
71566;SDS011;59403;47.456;19.120;2022-11-20T13:25:51;25.57;;;11.17;;
71566;SDS011;59403;47.456;19.120;2022-11-20T13:28:29;24.05;;;11.93;;
71566;SDS011;59403;47.456;19.120;2022-11-20T13:30:59;25.55;;;11.75;;
71566;SDS011;59403;47.456;19.120;2022-11-20T13:33:29;24.20;;;11.00;;
71566;SDS011;59403;47.456;19.120;2022-11-20T13:35:58;23.00;;;10.90;;
71566;SDS011;59403;47.456;19.120;2022-11-20T13:38:27;24.77;;;10.90;;
71566;SDS011;59403;47.456;19.120;2022-11-20T13:40:56;21.48;;;9.52;;
71566;SDS011;59403;47.456;19.120;2022-11-20T13:43:28;24.05;;;11.63;;
71566;SDS011;59403;47.456;19.120;2022-11-20T13:46:04;24.67;;;11.23;;
71566;SDS011;59403;47.456;19.120;2022-11-20T13:48:34;26.33;;;11.10;;
71566;SDS011;59403;47.456;19.120;2022-11-20T13:51:15;23.13;;;10.30;;
71566;SDS011;59403;47.456;19.120;2022-11-20T13:56:56;25.42;;;12.02;;
71566;SDS011;59403;47.456;19.120;2022-11-20T13:59:35;23.65;;;11.00;;
71566;SDS011;59403;47.456;19.120;2022-11-20T14:02:19;28.27;;;12.30;;
71566;SDS011;59403;47.456;19.120;2022-11-20T14:04:51;26.20;;;11.00;;
71566;SDS011;59403;47.456;19.120;2022-11-20T14:07:20;27.35;;;11.75;;
71566;SDS011;59403;47.456;19.120;2022-11-20T14:09:50;25.45;;;11.05;;
71566;SDS011;59403;47.456;19.120;2022-11-20T14:12:19;27.75;;;12.20;;
71566;SDS011;59403;47.456;19.120;2022-11-20T14:14:48;27.75;;;11.65;;
71566;SDS011;59403;47.456;19.120;2022-11-20T14:17:18;28.48;;;12.68;;
71566;SDS011;59403;47.456;19.120;2022-11-20T14:19:46;26.85;;;11.82;;
71566;SDS011;59403;47.456;19.120;2022-11-20T14:22:17;27.37;;;11.60;;
71566;SDS011;59403;47.456;19.120;2022-11-20T14:24:45;28.27;;;12.02;;
71566;SDS011;59403;47.456;19.120;2022-11-20T14:27:13;27.37;;;11.80;;
71566;SDS011;59403;47.456;19.120;2022-11-20T14:29:43;29.02;;;12.18;;
71566;SDS011;59403;47.456;19.120;2022-11-20T14:32:13;27.75;;;12.77;;
71566;SDS011;59403;47.456;19.120;2022-11-20T14:34:43;27.37;;;12.30;;
71566;SDS011;59403;47.456;19.120;2022-11-20T14:37:12;27.58;;;12.43;;
71566;SDS011;59403;47.456;19.120;2022-11-20T14:39:49;27.52;;;11.85;;
71566;SDS011;59403;47.456;19.120;2022-11-20T14:42:19;25.90;;;12.00;;
71566;SDS011;59403;47.456;19.120;2022-11-20T14:44:47;27.60;;;12.48;;
71566;SDS011;59403;47.456;19.120;2022-11-20T14:47:17;29.77;;;12.73;;
71566;SDS011;59403;47.456;19.120;2022-11-20T14:49:47;29.02;;;12.02;;
71566;SDS011;59403;47.456;19.120;2022-11-20T14:52:17;30.88;;;12.98;;
71566;SDS011;59403;47.456;19.120;2022-11-20T14:54:46;27.95;;;11.63;;
71566;SDS011;59403;47.456;19.120;2022-11-20T14:57:22;28.45;;;11.12;;
71566;SDS011;59403;47.456;19.120;2022-11-20T14:59:51;28.20;;;12.20;;
71566;SDS011;59403;47.456;19.120;2022-11-20T15:02:18;28.62;;;12.00;;
71566;SDS011;59403;47.456;19.120;2022-11-20T15:04:46;28.33;;;12.50;;
71566;SDS011;59403;47.456;19.120;2022-11-20T15:07:23;27.73;;;11.98;;
71566;SDS011;59403;47.456;19.120;2022-11-20T15:09:59;29.70;;;13.02;;
71566;SDS011;59403;47.456;19.120;2022-11-20T15:12:28;30.83;;;13.30;;
71566;SDS011;59403;47.456;19.120;2022-11-20T15:14:56;31.90;;;14.70;;
71566;SDS011;59403;47.456;19.120;2022-11-20T15:17:23;34.63;;;15.30;;
71566;SDS011;59403;47.456;19.120;2022-11-20T15:19:50;34.08;;;14.15;;
71566;SDS011;59403;47.456;19.120;2022-11-20T15:22:18;33.75;;;14.40;;
71566;SDS011;59403;47.456;19.120;2022-11-20T15:24:45;32.13;;;13.90;;
71566;SDS011;59403;47.456;19.120;2022-11-20T15:27:12;31.85;;;14.82;;
71566;SDS011;59403;47.456;19.120;2022-11-20T15:29:40;36.40;;;14.85;;
71566;SDS011;59403;47.456;19.120;2022-11-20T15:32:08;33.90;;;14.93;;
71566;SDS011;59403;47.456;19.120;2022-11-20T15:34:35;34.90;;;14.93;;
71566;SDS011;59403;47.456;19.120;2022-11-20T15:37:02;34.63;;;14.33;;
71566;SDS011;59403;47.456;19.120;2022-11-20T15:39:29;31.60;;;14.32;;
71566;SDS011;59403;47.456;19.120;2022-11-20T15:41:56;34.72;;;14.25;;
71566;SDS011;59403;47.456;19.120;2022-11-20T15:44:23;31.08;;;13.93;;
71566;SDS011;59403;47.456;19.120;2022-11-20T15:46:51;32.75;;;13.65;;
71566;SDS011;59403;47.456;19.120;2022-11-20T15:49:18;31.13;;;14.33;;
71566;SDS011;59403;47.456;19.120;2022-11-20T15:51:48;33.88;;;15.07;;
71566;SDS011;59403;47.456;19.120;2022-11-20T15:54:18;33.67;;;15.02;;
71566;SDS011;59403;47.456;19.120;2022-11-20T15:56:46;39.97;;;15.80;;
71566;SDS011;59403;47.456;19.120;2022-11-20T15:59:13;39.05;;;17.33;;
71566;SDS011;59403;47.456;19.120;2022-11-20T16:01:41;35.70;;;16.67;;
71566;SDS011;59403;47.456;19.120;2022-11-20T16:04:10;34.58;;;15.18;;
71566;SDS011;59403;47.456;19.120;2022-11-20T16:06:39;35.35;;;16.27;;
71566;SDS011;59403;47.456;19.120;2022-11-20T16:09:06;34.33;;;15.73;;
71566;SDS011;59403;47.456;19.120;2022-11-20T16:11:33;37.50;;;16.05;;
71566;SDS011;59403;47.456;19.120;2022-11-20T16:14:01;37.47;;;16.43;;
71566;SDS011;59403;47.456;19.120;2022-11-20T16:16:46;36.13;;;16.40;;
71566;SDS011;59403;47.456;19.120;2022-11-20T16:19:15;35.35;;;16.48;;
71566;SDS011;59403;47.456;19.120;2022-11-20T16:21:43;40.53;;;16.65;;
71566;SDS011;59403;47.456;19.120;2022-11-20T16:24:10;36.35;;;16.02;;
71566;SDS011;59403;47.456;19.120;2022-11-20T16:26:39;37.53;;;15.63;;
71566;SDS011;59403;47.456;19.120;2022-11-20T16:29:07;39.28;;;16.85;;
71566;SDS011;59403;47.456;19.120;2022-11-20T16:31:35;36.92;;;16.55;;
71566;SDS011;59403;47.456;19.120;2022-11-20T16:34:03;39.25;;;17.70;;
71566;SDS011;59403;47.456;19.120;2022-11-20T16:36:33;44.92;;;19.35;;
71566;SDS011;59403;47.456;19.120;2022-11-20T16:39:00;40.73;;;17.70;;
71566;SDS011;59403;47.456;19.120;2022-11-20T16:41:30;39.38;;;17.65;;
71566;SDS011;59403;47.456;19.120;2022-11-20T16:43:59;44.40;;;20.27;;
71566;SDS011;59403;47.456;19.120;2022-11-20T16:46:28;42.55;;;20.50;;
71566;SDS011;59403;47.456;19.120;2022-11-20T16:48:56;42.65;;;20.12;;
71566;SDS011;59403;47.456;19.120;2022-11-20T16:51:25;46.53;;;19.77;;
71566;SDS011;59403;47.456;19.120;2022-11-20T16:53:53;44.17;;;19.98;;
71566;SDS011;59403;47.456;19.120;2022-11-20T16:56:21;47.78;;;20.33;;
71566;SDS011;59403;47.456;19.120;2022-11-20T16:58:50;55.45;;;25.85;;
71566;SDS011;59403;47.456;19.120;2022-11-20T17:01:19;44.10;;;21.15;;
71566;SDS011;59403;47.456;19.120;2022-11-20T17:03:52;48.17;;;21.80;;
71566;SDS011;59403;47.456;19.120;2022-11-20T17:06:20;46.20;;;20.05;;
71566;SDS011;59403;47.456;19.120;2022-11-20T17:08:49;48.10;;;21.45;;
71566;SDS011;59403;47.456;19.120;2022-11-20T17:11:18;47.88;;;21.27;;
71566;SDS011;59403;47.456;19.120;2022-11-20T17:13:45;49.58;;;21.70;;
71566;SDS011;59403;47.456;19.120;2022-11-20T17:16:13;42.57;;;21.23;;
71566;SDS011;59403;47.456;19.120;2022-11-20T17:18:41;47.13;;;20.95;;
71566;SDS011;59403;47.456;19.120;2022-11-20T17:21:09;40.40;;;20.02;;
71566;SDS011;59403;47.456;19.120;2022-11-20T17:23:37;43.55;;;20.92;;
71566;SDS011;59403;47.456;19.120;2022-11-20T17:26:06;45.90;;;21.65;;
71566;SDS011;59403;47.456;19.120;2022-11-20T17:28:36;47.77;;;21.80;;
71566;SDS011;59403;47.456;19.120;2022-11-20T17:31:04;48.22;;;21.77;;
71566;SDS011;59403;47.456;19.120;2022-11-20T17:33:33;40.67;;;18.10;;
71566;SDS011;59403;47.456;19.120;2022-11-20T17:36:01;42.80;;;19.77;;
71566;SDS011;59403;47.456;19.120;2022-11-20T17:38:28;44.40;;;19.12;;
71566;SDS011;59403;47.456;19.120;2022-11-20T17:41:00;39.43;;;18.20;;
71566;SDS011;59403;47.456;19.120;2022-11-20T17:43:29;42.15;;;18.52;;
71566;SDS011;59403;47.456;19.120;2022-11-20T17:45:58;38.75;;;16.85;;
71566;SDS011;59403;47.456;19.120;2022-11-20T17:48:25;40.25;;;16.73;;
71566;SDS011;59403;47.456;19.120;2022-11-20T17:50:53;36.13;;;16.33;;
71566;SDS011;59403;47.456;19.120;2022-11-20T17:53:25;39.00;;;16.70;;
71566;SDS011;59403;47.456;19.120;2022-11-20T17:55:55;36.05;;;16.05;;
71566;SDS011;59403;47.456;19.120;2022-11-20T17:58:39;36.70;;;17.02;;
71566;SDS011;59403;47.456;19.120;2022-11-20T18:01:09;47.20;;;19.65;;
71566;SDS011;59403;47.456;19.120;2022-11-20T18:03:36;46.58;;;21.12;;
71566;SDS011;59403;47.456;19.120;2022-11-20T18:06:06;49.47;;;23.07;;
71566;SDS011;59403;47.456;19.120;2022-11-20T18:08:35;46.22;;;21.27;;
71566;SDS011;59403;47.456;19.120;2022-11-20T18:11:08;40.55;;;19.40;;
71566;SDS011;59403;47.456;19.120;2022-11-20T18:13:35;42.58;;;19.08;;
71566;SDS011;59403;47.456;19.120;2022-11-20T18:16:21;48.40;;;21.00;;
71566;SDS011;59403;47.456;19.120;2022-11-20T18:18:48;48.70;;;19.97;;
71566;SDS011;59403;47.456;19.120;2022-11-20T18:21:15;45.42;;;19.33;;
71566;SDS011;59403;47.456;19.120;2022-11-20T18:23:41;46.28;;;20.05;;
71566;SDS011;59403;47.456;19.120;2022-11-20T18:26:08;39.63;;;18.30;;
71566;SDS011;59403;47.456;19.120;2022-11-20T18:28:36;40.12;;;18.87;;
71566;SDS011;59403;47.456;19.120;2022-11-20T18:31:04;41.57;;;18.37;;
71566;SDS011;59403;47.456;19.120;2022-11-20T18:33:33;39.92;;;17.95;;
71566;SDS011;59403;47.456;19.120;2022-11-20T18:36:07;40.63;;;18.20;;
71566;SDS011;59403;47.456;19.120;2022-11-20T18:38:34;47.22;;;19.20;;
71566;SDS011;59403;47.456;19.120;2022-11-20T18:41:04;49.80;;;21.33;;
71566;SDS011;59403;47.456;19.120;2022-11-20T18:43:31;51.03;;;21.57;;
71566;SDS011;59403;47.456;19.120;2022-11-20T18:46:16;47.28;;;20.85;;
71566;SDS011;59403;47.456;19.120;2022-11-20T18:48:47;52.90;;;24.52;;
71566;SDS011;59403;47.456;19.120;2022-11-20T18:51:17;60.33;;;25.75;;
71566;SDS011;59403;47.456;19.120;2022-11-20T18:53:44;65.47;;;29.55;;
71566;SDS011;59403;47.456;19.120;2022-11-20T18:56:11;65.10;;;29.37;;
71566;SDS011;59403;47.456;19.120;2022-11-20T18:58:37;66.70;;;30.15;;
71566;SDS011;59403;47.456;19.120;2022-11-20T19:01:05;63.78;;;29.98;;
71566;SDS011;59403;47.456;19.120;2022-11-20T19:03:33;62.67;;;30.15;;
71566;SDS011;59403;47.456;19.120;2022-11-20T19:06:01;63.20;;;30.55;;
71566;SDS011;59403;47.456;19.120;2022-11-20T19:08:28;67.40;;;31.27;;
71566;SDS011;59403;47.456;19.120;2022-11-20T19:11:04;70.57;;;30.37;;
71566;SDS011;59403;47.456;19.120;2022-11-20T19:13:31;63.33;;;30.62;;
71566;SDS011;59403;47.456;19.120;2022-11-20T19:16:01;68.03;;;31.05;;
71566;SDS011;59403;47.456;19.120;2022-11-20T19:18:28;65.85;;;30.25;;
71566;SDS011;59403;47.456;19.120;2022-11-20T19:20:55;66.17;;;31.23;;
71566;SDS011;59403;47.456;19.120;2022-11-20T19:23:24;62.72;;;30.30;;
71566;SDS011;59403;47.456;19.120;2022-11-20T19:25:50;64.00;;;31.58;;
71566;SDS011;59403;47.456;19.120;2022-11-20T19:28:17;63.35;;;30.98;;
71566;SDS011;59403;47.456;19.120;2022-11-20T19:30:44;65.43;;;30.98;;
71566;SDS011;59403;47.456;19.120;2022-11-20T19:33:11;63.67;;;28.67;;
71566;SDS011;59403;47.456;19.120;2022-11-20T19:35:38;58.20;;;27.67;;
71566;SDS011;59403;47.456;19.120;2022-11-20T19:38:04;56.60;;;26.15;;
71566;SDS011;59403;47.456;19.120;2022-11-20T19:40:33;60.28;;;28.17;;
71566;SDS011;59403;47.456;19.120;2022-11-20T19:43:00;59.42;;;27.90;;
71566;SDS011;59403;47.456;19.120;2022-11-20T19:45:28;63.20;;;27.50;;
71566;SDS011;59403;47.456;19.120;2022-11-20T19:47:56;65.05;;;27.25;;
71566;SDS011;59403;47.456;19.120;2022-11-20T19:50:24;60.80;;;27.87;;
71566;SDS011;59403;47.456;19.120;2022-11-20T19:52:51;55.95;;;27.00;;
71566;SDS011;59403;47.456;19.120;2022-11-20T19:55:18;60.00;;;27.80;;
71566;SDS011;59403;47.456;19.120;2022-11-20T19:57:46;61.30;;;28.30;;
71566;SDS011;59403;47.456;19.120;2022-11-20T20:00:13;59.08;;;28.52;;
71566;SDS011;59403;47.456;19.120;2022-11-20T20:02:41;59.42;;;29.33;;
71566;SDS011;59403;47.456;19.120;2022-11-20T20:05:07;61.53;;;28.67;;
71566;SDS011;59403;47.456;19.120;2022-11-20T20:07:34;60.97;;;28.30;;
71566;SDS011;59403;47.456;19.120;2022-11-20T20:10:04;63.77;;;28.67;;
71566;SDS011;59403;47.456;19.120;2022-11-20T20:12:31;64.78;;;30.17;;
71566;SDS011;59403;47.456;19.120;2022-11-20T20:15:00;61.33;;;28.85;;
71566;SDS011;59403;47.456;19.120;2022-11-20T20:17:27;60.95;;;29.98;;
71566;SDS011;59403;47.456;19.120;2022-11-20T20:19:53;62.90;;;29.20;;
71566;SDS011;59403;47.456;19.120;2022-11-20T20:22:20;62.50;;;29.90;;
71566;SDS011;59403;47.456;19.120;2022-11-20T20:24:47;63.65;;;28.75;;
71566;SDS011;59403;47.456;19.120;2022-11-20T20:27:16;68.75;;;30.67;;
71566;SDS011;59403;47.456;19.120;2022-11-20T20:29:42;74.00;;;35.97;;
71566;SDS011;59403;47.456;19.120;2022-11-20T20:32:11;87.32;;;44.05;;
71566;SDS011;59403;47.456;19.120;2022-11-20T20:34:38;90.17;;;44.73;;
71566;SDS011;59403;47.456;19.120;2022-11-20T20:37:04;82.78;;;42.13;;
71566;SDS011;59403;47.456;19.120;2022-11-20T20:39:31;88.05;;;43.33;;
71566;SDS011;59403;47.456;19.120;2022-11-20T20:41:58;84.30;;;42.95;;
71566;SDS011;59403;47.456;19.120;2022-11-20T20:44:25;79.75;;;39.22;;
71566;SDS011;59403;47.456;19.120;2022-11-20T20:47:11;75.33;;;35.77;;
71566;SDS011;59403;47.456;19.120;2022-11-20T20:49:37;70.37;;;34.33;;
71566;SDS011;59403;47.456;19.120;2022-11-20T20:52:07;69.37;;;33.10;;
71566;SDS011;59403;47.456;19.120;2022-11-20T20:54:34;69.65;;;32.75;;
71566;SDS011;59403;47.456;19.120;2022-11-20T20:57:01;68.53;;;33.35;;
71566;SDS011;59403;47.456;19.120;2022-11-20T20:59:28;72.67;;;33.53;;
71566;SDS011;59403;47.456;19.120;2022-11-20T21:01:55;69.55;;;33.50;;
71566;SDS011;59403;47.456;19.120;2022-11-20T21:04:23;67.87;;;30.33;;
71566;SDS011;59403;47.456;19.120;2022-11-20T21:06:50;62.70;;;30.12;;
71566;SDS011;59403;47.456;19.120;2022-11-20T21:09:17;67.22;;;30.85;;
71566;SDS011;59403;47.456;19.120;2022-11-20T21:11:45;65.03;;;30.83;;
71566;SDS011;59403;47.456;19.120;2022-11-20T21:14:12;64.40;;;32.17;;
71566;SDS011;59403;47.456;19.120;2022-11-20T21:16:39;63.17;;;30.17;;
71566;SDS011;59403;47.456;19.120;2022-11-20T21:19:08;65.20;;;30.50;;
71566;SDS011;59403;47.456;19.120;2022-11-20T21:21:37;65.35;;;31.75;;
71566;SDS011;59403;47.456;19.120;2022-11-20T21:24:09;64.20;;;30.47;;
71566;SDS011;59403;47.456;19.120;2022-11-20T21:26:36;62.22;;;30.35;;
71566;SDS011;59403;47.456;19.120;2022-11-20T21:29:03;62.22;;;29.42;;
71566;SDS011;59403;47.456;19.120;2022-11-20T21:31:30;64.00;;;30.25;;
71566;SDS011;59403;47.456;19.120;2022-11-20T21:33:56;62.40;;;30.33;;
71566;SDS011;59403;47.456;19.120;2022-11-20T21:36:24;59.10;;;28.10;;
71566;SDS011;59403;47.456;19.120;2022-11-20T21:38:54;57.15;;;27.50;;
71566;SDS011;59403;47.456;19.120;2022-11-20T21:41:23;67.07;;;28.75;;
71566;SDS011;59403;47.456;19.120;2022-11-20T21:43:51;60.88;;;28.77;;
71566;SDS011;59403;47.456;19.120;2022-11-20T21:46:19;65.15;;;29.73;;
71566;SDS011;59403;47.456;19.120;2022-11-20T21:48:45;59.53;;;27.87;;
71566;SDS011;59403;47.456;19.120;2022-11-20T21:51:13;64.50;;;28.62;;
71566;SDS011;59403;47.456;19.120;2022-11-20T21:53:41;57.22;;;28.20;;
71566;SDS011;59403;47.456;19.120;2022-11-20T21:56:11;59.85;;;28.45;;
71566;SDS011;59403;47.456;19.120;2022-11-20T21:58:39;65.50;;;30.10;;
71566;SDS011;59403;47.456;19.120;2022-11-20T22:01:06;73.03;;;32.20;;
71566;SDS011;59403;47.456;19.120;2022-11-20T22:03:34;67.03;;;32.40;;
71566;SDS011;59403;47.456;19.120;2022-11-20T22:06:01;60.75;;;30.02;;
71566;SDS011;59403;47.456;19.120;2022-11-20T22:08:28;56.78;;;28.23;;
71566;SDS011;59403;47.456;19.120;2022-11-20T22:10:55;59.25;;;28.33;;
71566;SDS011;59403;47.456;19.120;2022-11-20T22:13:25;60.20;;;27.70;;
71566;SDS011;59403;47.456;19.120;2022-11-20T22:16:11;56.83;;;25.77;;
71566;SDS011;59403;47.456;19.120;2022-11-20T22:18:40;61.25;;;28.42;;
71566;SDS011;59403;47.456;19.120;2022-11-20T22:21:08;58.42;;;27.77;;
71566;SDS011;59403;47.456;19.120;2022-11-20T22:23:36;59.65;;;27.48;;
71566;SDS011;59403;47.456;19.120;2022-11-20T22:26:03;61.27;;;27.30;;
71566;SDS011;59403;47.456;19.120;2022-11-20T22:28:33;55.55;;;26.17;;
71566;SDS011;59403;47.456;19.120;2022-11-20T22:31:00;63.10;;;28.48;;
71566;SDS011;59403;47.456;19.120;2022-11-20T22:33:29;63.42;;;28.00;;
71566;SDS011;59403;47.456;19.120;2022-11-20T22:36:00;64.50;;;27.05;;
71566;SDS011;59403;47.456;19.120;2022-11-20T22:38:28;60.00;;;27.43;;
71566;SDS011;59403;47.456;19.120;2022-11-20T22:40:59;66.15;;;28.75;;
71566;SDS011;59403;47.456;19.120;2022-11-20T22:43:27;60.45;;;26.85;;
71566;SDS011;59403;47.456;19.120;2022-11-20T22:45:59;59.65;;;27.10;;
71566;SDS011;59403;47.456;19.120;2022-11-20T22:48:30;59.35;;;27.13;;
71566;SDS011;59403;47.456;19.120;2022-11-20T22:51:01;57.87;;;26.00;;
71566;SDS011;59403;47.456;19.120;2022-11-20T22:53:29;59.65;;;26.10;;
71566;SDS011;59403;47.456;19.120;2022-11-20T22:55:55;58.67;;;24.65;;
71566;SDS011;59403;47.456;19.120;2022-11-20T22:58:22;52.45;;;22.95;;
71566;SDS011;59403;47.456;19.120;2022-11-20T23:00:49;51.15;;;23.08;;
71566;SDS011;59403;47.456;19.120;2022-11-20T23:03:19;53.67;;;22.67;;
71566;SDS011;59403;47.456;19.120;2022-11-20T23:05:45;54.35;;;23.92;;
71566;SDS011;59403;47.456;19.120;2022-11-20T23:08:12;53.58;;;24.35;;
71566;SDS011;59403;47.456;19.120;2022-11-20T23:10:39;56.08;;;25.12;;
71566;SDS011;59403;47.456;19.120;2022-11-20T23:13:06;56.42;;;24.67;;
71566;SDS011;59403;47.456;19.120;2022-11-20T23:15:33;58.57;;;25.17;;
71566;SDS011;59403;47.456;19.120;2022-11-20T23:18:00;56.42;;;23.95;;
71566;SDS011;59403;47.456;19.120;2022-11-20T23:20:29;52.42;;;22.55;;
71566;SDS011;59403;47.456;19.120;2022-11-20T23:22:56;59.58;;;25.30;;
71566;SDS011;59403;47.456;19.120;2022-11-20T23:25:22;56.97;;;23.90;;
71566;SDS011;59403;47.456;19.120;2022-11-20T23:27:49;56.30;;;24.97;;
71566;SDS011;59403;47.456;19.120;2022-11-20T23:30:18;52.28;;;24.55;;
71566;SDS011;59403;47.456;19.120;2022-11-20T23:32:45;53.40;;;23.10;;
71566;SDS011;59403;47.456;19.120;2022-11-20T23:35:12;56.42;;;24.40;;
71566;SDS011;59403;47.456;19.120;2022-11-20T23:37:40;55.40;;;22.60;;
71566;SDS011;59403;47.456;19.120;2022-11-20T23:40:07;51.83;;;23.67;;
71566;SDS011;59403;47.456;19.120;2022-11-20T23:42:35;54.13;;;24.02;;
71566;SDS011;59403;47.456;19.120;2022-11-20T23:45:02;50.10;;;23.35;;
71566;SDS011;59403;47.456;19.120;2022-11-20T23:47:29;49.63;;;21.80;;
71566;SDS011;59403;47.456;19.120;2022-11-20T23:49:55;51.75;;;23.70;;
71566;SDS011;59403;47.456;19.120;2022-11-20T23:52:22;57.03;;;24.23;;
71566;SDS011;59403;47.456;19.120;2022-11-20T23:54:51;56.03;;;25.20;;
71566;SDS011;59403;47.456;19.120;2022-11-20T23:57:18;55.05;;;23.95;;
71566;SDS011;59403;47.456;19.120;2022-11-20T23:59:45;54.60;;;24.30;;
